Aviation Digital Data Service (ADDS)

Output produced by METARs form (1707 UTC 24 April 2017)
found at http://www.aviationweather.gov/adds/metars/
 
FBFT 241700Z 09008KT 9999 FEW020 16/13 Q1022
TAF FBFT 241200Z 2415/2424 11008KT 9999 BKN025 FEW040CB 
     PROB30 
     TEMPO 2415/2424 TSRA
       
FBKE 241700Z 13005KT CAVOK 18/18 Q1020
TAF FBKE 241200Z 2415/2424 13005KT 9999 BKN025 FEW040CB 
     PROB30 
     TEMPO 2415/2424 TSRA
       
FBMN 241700Z 16004KT 9999 FEW030 17/15 Q1021
TAF FBMN 241200Z 2415/2424 14006KT 9999 BKN025
       
FBSP 241700Z 13006KT 9999 FEW020 BKN070 18/15 Q1023
TAF FBSP 241200Z 2415/2424 06005KT 9999 BKN025
       
FBSK 241700Z 04004KT CAVOK 17/11 Q1023 NOSIG
TAF FBSK 241500Z 2418/2524 34002KT CAVOK 
     BECMG 2503/2505 04012KT OVC010 
     BECMG 2510/2512 BKN020
       
FBFT 241700Z 09008KT 9999 FEW020 16/13 Q1022
TAF FBFT 241200Z 2415/2424 11008KT 9999 BKN025 FEW040CB 
     PROB30 
     TEMPO 2415/2424 TSRA